Springfield, OH

11:32 AM EST on January 31, 2015 (GMT -0500)
Yellow Springs | Change Station
CLOSE
Current Station
Personal Weather Station
Location: Yellow Springs, OH
Elevation: 1010 ft
Nearby Weather Stations
Active Advisory: Winter Storm Watch

Elev 1010 ft 39.81 °N, 83.89 °W | Updated 5 seconds ago

Partly Cloudy
Partly Cloudy
31.1 °F
Feels Like 31 °F
N
0.2
Wind Variable Wind from West
Gusts 2.5 mph

Today
High -- | Low -- °F
--% Chance of Precip.
Yesterday
High -- | Low -- °F
Precip. -- in
7:44 AM 5:53 PM
Waxing Gibbous, 90% visible
Pressure 30.41 in
Visibility 8.0 miles
Clouds Clear
Windchill 31 °F
Dew Point 14 °F
Humidity 50%
Rainfall 0.00 in
Snow Depth Not available.
UV 3 out of 12
Pollen .10 out of 12
Air Quality Not available.
Flu Activity Not available.
METAR KSGH 311556Z AUTO 21009KT 8SM CLR M03/M08 A3036 RMK AO2 T10271077 SLP297

More Conditions Fewer Conditions

Pressure 30.41 in
Visibility 8.0 miles
Clouds Clear
Windchill 31 °F
Dew Point 14 °F
Humidity 50%
Rainfall 0.00 in
Snow Depth Not available.
UV 3 out of 12
Pollen .10 out of 12
Air Quality Not available.
Flu Activity Not available.
METAR KSGH 311556Z AUTO 21009KT 8SM CLR M03/M08 A3036 RMK AO2 T10271077 SLP297

More Conditions Fewer Conditions

10-Day Weather Forecast

Almanac

Astronomy

Jan. 31, 2015 Rise Set
Actual Time
Civil Twilight
Nautical Twilight
Astronomical Twilight
Moon
Length of Visible Light
Length of Day
Tomorrow will be .
, % of the Moon is Illuminated

Today's Extremes

State Highs State Lows

Community

WunderPhotos

Upload Photos

1,792,106 photos uploaded!

WunderBlogs® & News

Nearby

Air Quality

  Air Quality AQ Index Pollutant
Not available.

Snow Depth

Station Depth Elevation

Earthquake Activity

City Distance Mag. Time & Date
Minimum magnitude displayed is 2.5.

Coastal Water Temperatures

Place Temperature

Nearby Weather Stations